Time;durP1;ratioP1;P1;durP2;ratioP2;P2;SDS_P1;SDS_P2;PMS_P1;PMS_P2;Temp;Humidity;BMP_temperature;BMP_pressure;BME280_temperature;BME280_humidity;BME280_pressure;Samples;Min_cycle;Max_cycle;Signal;HPM_P1;HPM_P2
2023/04/08 00:01:40;;;;;;;23.33;21.73;;;10.00;99.90;;;;;;4860229;29;20453;-77
2023/04/08 00:04:08;;;;;;;22.57;20.90;;;10.10;99.90;;;;;;4859807;29;20465;-77
2023/04/08 00:06:35;;;;;;;24.63;22.80;;;10.10;99.90;;;;;;4859897;29;21032;-77
2023/04/08 00:09:02;;;;;;;25.53;23.57;;;10.00;99.90;;;;;;4873320;29;20471;-78
2023/04/08 00:11:29;;;;;;;23.60;21.90;;;10.00;99.90;;;;;;4878677;29;20491;-78
2023/04/08 00:13:56;;;;;;;24.57;22.67;;;10.00;99.90;;;;;;4878516;29;20460;-79
2023/04/08 00:16:24;;;;;;;23.70;22.00;;;10.00;99.90;;;;;;4878325;29;20452;-80
2023/04/08 00:18:51;;;;;;;23.43;21.73;;;10.00;99.90;;;;;;4878445;29;20894;-80
2023/04/08 00:21:19;;;;;;;25.33;23.27;;;10.00;99.90;;;;;;4878354;29;20867;-81
2023/04/08 00:23:46;;;;;;;24.83;22.63;;;10.00;99.90;;;;;;4878401;29;20467;-79
2023/04/08 00:26:13;;;;;;;23.60;21.90;;;10.00;99.90;;;;;;4878360;29;20459;-80
2023/04/08 00:28:40;;;;;;;24.57;22.67;;;9.90;99.90;;;;;;4878054;29;20898;-79
2023/04/08 00:31:06;;;;;;;22.80;21.00;;;9.90;99.90;;;;;;4877873;29;20555;-79
2023/04/08 00:33:35;;;;;;;26.20;24.00;;;9.90;99.90;;;;;;4877943;29;20463;-80
2023/04/08 00:36:02;;;;;;;24.93;23.23;;;9.80;99.90;;;;;;4878029;29;20480;-79
2023/04/08 00:38:28;;;;;;;24.73;22.83;;;9.60;99.90;;;;;;4877775;29;20500;-77
2023/04/08 00:40:55;;;;;;;23.87;21.90;;;9.70;99.90;;;;;;4878016;29;20461;-77
2023/04/08 00:43:23;;;;;;;23.90;22.10;;;9.70;99.90;;;;;;4877875;29;20463;-79
2023/04/08 00:45:50;;;;;;;27.40;25.30;;;9.70;99.90;;;;;;4877942;29;20607;-79
2023/04/08 00:48:16;;;;;;;25.10;23.10;;;9.70;99.90;;;;;;4877832;29;20959;-81
2023/04/08 00:50:46;;;;;;;23.00;21.30;;;9.70;99.90;;;;;;4877915;29;20495;-80
2023/04/08 00:53:14;;;;;;;23.60;21.90;;;9.70;99.90;;;;;;4877894;29;20464;-80
2023/04/08 00:55:41;;;;;;;24.70;22.80;;;9.80;99.90;;;;;;4877732;29;20856;-79
2023/04/08 00:58:08;;;;;;;24.13;22.33;;;9.80;99.90;;;;;;4877722;29;20467;-81
2023/04/08 01:00:37;;;;;;;26.33;24.17;;;9.80;99.90;;;;;;4877837;29;20763;-78
2023/04/08 01:03:10;;;;;;;25.53;23.67;;;9.80;99.90;;;;;;4877404;29;20482;-79
2023/04/08 01:05:50;;;;;;;26.60;24.57;;;9.80;99.90;;;;;;4877591;29;20460;-79
2023/04/08 01:08:18;;;;;;;24.30;22.40;;;9.80;99.90;;;;;;4877528;29;20468;-79
2023/04/08 01:10:48;;;;;;;24.10;22.40;;;9.70;99.90;;;;;;4877653;29;20534;-79
2023/04/08 01:13:18;;;;;;;25.03;23.13;;;9.80;99.90;;;;;;4877691;29;20456;-78
2023/04/08 01:15:45;;;;;;;26.57;24.07;;;9.70;99.90;;;;;;4877707;29;20538;-79
2023/04/08 01:18:13;;;;;;;25.20;23.10;;;9.70;99.90;;;;;;4877428;29;20473;-80
2023/04/08 01:20:41;;;;;;;23.50;21.80;;;9.70;99.90;;;;;;4877407;29;20471;-81
2023/04/08 01:23:17;;;;;;;26.53;24.33;;;9.70;99.90;;;;;;4877174;29;20471;-81
2023/04/08 01:25:47;;;;;;;23.10;21.57;;;9.70;99.90;;;;;;4877456;29;20466;-81
2023/04/08 01:28:17;;;;;;;24.40;22.40;;;9.70;99.90;;;;;;4877609;29;20470;-82
2023/04/08 01:30:46;;;;;;;23.73;22.00;;;9.70;99.90;;;;;;4877362;29;20491;-81
2023/04/08 01:33:16;;;;;;;22.30;20.70;;;9.70;99.90;;;;;;4877172;29;20463;-78
2023/04/08 01:35:44;;;;;;;24.77;22.97;;;9.70;99.90;;;;;;4877198;29;20515;-79
2023/04/08 01:38:15;;;;;;;24.83;22.73;;;9.70;99.90;;;;;;4876979;29;20832;-78
2023/04/08 01:40:42;;;;;;;24.57;22.70;;;9.80;99.90;;;;;;4877139;29;20959;-78
2023/04/08 01:43:13;;;;;;;23.47;21.77;;;9.70;99.90;;;;;;4877172;29;20819;-79
2023/04/08 01:45:39;;;;;;;23.77;22.07;;;9.80;99.90;;;;;;4876882;29;20457;-79
2023/04/08 01:48:08;;;;;;;23.33;21.63;;;9.80;99.90;;;;;;4876603;29;20478;-79
2023/04/08 01:50:35;;;;;;;24.60;22.80;;;9.90;99.90;;;;;;4875925;29;20499;-79
2023/04/08 01:53:04;;;;;;;21.23;19.73;;;9.90;99.90;;;;;;4876726;29;20467;-77
2023/04/08 01:55:33;;;;;;;23.03;21.43;;;10.00;99.90;;;;;;4877000;29;20470;-77
2023/04/08 01:58:01;;;;;;;23.60;21.87;;;9.90;99.90;;;;;;4876890;29;20467;-77
2023/04/08 02:00:30;;;;;;;23.93;22.13;;;10.00;99.90;;;;;;4876792;29;20452;-77
2023/04/08 02:02:59;;;;;;;22.20;20.70;;;9.90;99.90;;;;;;4876714;29;20460;-77
2023/04/08 02:05:26;;;;;;;22.53;20.80;;;9.90;99.90;;;;;;4876695;29;20814;-77
2023/04/08 02:07:52;;;;;;;24.63;22.83;;;9.90;99.90;;;;;;4876483;29;20463;-77
2023/04/08 02:10:19;;;;;;;24.67;22.87;;;9.80;99.90;;;;;;4876244;29;20935;-77
2023/04/08 02:12:47;;;;;;;23.93;22.13;;;9.80;99.90;;;;;;4876563;29;20467;-77
2023/04/08 02:15:14;;;;;;;23.53;21.73;;;9.80;99.90;;;;;;4876969;29;20452;-77
2023/04/08 02:17:45;;;;;;;24.17;22.30;;;9.70;99.90;;;;;;4876541;29;20456;-77
2023/04/08 02:20:17;;;;;;;24.67;22.67;;;9.70;99.90;;;;;;4876352;29;20989;-78
2023/04/08 02:22:48;;;;;;;23.93;22.07;;;9.70;99.90;;;;;;4876546;29;20456;-78
2023/04/08 02:25:17;;;;;;;24.80;22.63;;;9.70;99.90;;;;;;4876526;29;20852;-78
2023/04/08 02:27:47;;;;;;;25.23;23.30;;;9.70;99.90;;;;;;4876361;29;20460;-78
2023/04/08 02:30:15;;;;;;;25.47;23.60;;;9.70;99.90;;;;;;4876311;29;20877;-77
2023/04/08 02:32:44;;;;;;;25.00;23.30;;;9.70;99.90;;;;;;4876289;29;20456;-78
2023/04/08 02:35:12;;;;;;;26.87;24.87;;;9.70;99.90;;;;;;4875963;29;20512;-77
2023/04/08 02:37:39;;;;;;;24.07;22.27;;;9.70;99.90;;;;;;4875732;29;20452;-77
2023/04/08 02:40:23;;;;;;;24.27;22.37;;;9.50;99.90;;;;;;4875701;29;20496;-77
2023/04/08 02:42:49;;;;;;;26.20;24.30;;;9.60;99.90;;;;;;4875796;29;20462;-77
2023/04/08 02:45:16;;;;;;;24.80;22.80;;;9.60;99.90;;;;;;4875911;29;20801;-77
2023/04/08 02:47:44;;;;;;;27.70;25.60;;;9.60;99.90;;;;;;4875884;29;20475;-79
2023/04/08 02:50:11;;;;;;;24.40;22.40;;;9.60;99.90;;;;;;4876684;29;20479;-81
2023/04/08 02:52:38;;;;;;;25.70;23.67;;;9.60;99.90;;;;;;4875968;29;20496;-78
2023/04/08 02:55:08;;;;;;;27.47;25.47;;;9.50;99.90;;;;;;4875844;29;20667;-78
2023/04/08 02:57:35;;;;;;;27.03;25.03;;;9.60;99.90;;;;;;4875588;29;20460;-77
2023/04/08 03:00:02;;;;;;;24.43;22.60;;;9.50;99.90;;;;;;4875788;29;20507;-76
2023/04/08 03:02:29;;;;;;;25.37;23.47;;;9.50;99.90;;;;;;4875824;29;20546;-77
2023/04/08 03:04:57;;;;;;;24.77;22.77;;;9.50;99.90;;;;;;4875774;29;20468;-76
2023/04/08 03:07:24;;;;;;;29.10;26.60;;;9.40;99.90;;;;;;4875624;29;20463;-77
2023/04/08 03:09:51;;;;;;;25.80;23.50;;;9.50;99.90;;;;;;4875655;29;20841;-78
2023/04/08 03:12:18;;;;;;;25.83;23.53;;;9.50;99.90;;;;;;4875503;29;20499;-78
2023/04/08 03:14:44;;;;;;;25.60;23.70;;;9.50;99.90;;;;;;4875986;29;20829;-78
2023/04/08 03:17:11;;;;;;;26.13;23.93;;;9.50;99.90;;;;;;4875856;29;20462;-79
2023/04/08 03:19:38;;;;;;;27.70;25.40;;;9.40;99.90;;;;;;4875325;29;20467;-76
2023/04/08 03:22:06;;;;;;;27.73;25.23;;;9.40;99.90;;;;;;4875486;29;20639;-79
2023/04/08 03:24:32;;;;;;;27.27;25.07;;;9.30;99.90;;;;;;4875587;29;20560;-77
2023/04/08 03:26:59;;;;;;;26.83;24.73;;;9.30;99.90;;;;;;4875786;29;20472;-76
2023/04/08 03:29:26;;;;;;;27.13;24.83;;;9.20;99.90;;;;;;4875561;29;20511;-77
2023/04/08 03:31:52;;;;;;;28.67;26.23;;;9.20;99.90;;;;;;4875386;29;20521;-77
2023/04/08 03:34:19;;;;;;;27.47;25.07;;;9.20;99.90;;;;;;4875107;29;20470;-77
2023/04/08 03:36:46;;;;;;;27.80;25.23;;;9.30;99.90;;;;;;4875510;29;20574;-78
2023/04/08 03:39:15;;;;;;;27.10;24.70;;;9.20;99.90;;;;;;4875579;29;20502;-79
2023/04/08 03:41:41;;;;;;;27.73;25.50;;;9.20;99.90;;;;;;4875680;29;20538;-79
2023/04/08 03:44:08;;;;;;;27.97;25.57;;;9.20;99.90;;;;;;4867707;29;20960;-80
2023/04/08 03:46:35;;;;;;;28.10;25.80;;;9.30;99.90;;;;;;4856817;29;20465;-79
2023/04/08 03:49:01;;;;;;;29.93;26.73;;;9.30;99.90;;;;;;4856862;29;20454;-78
2023/04/08 03:51:28;;;;;;;27.90;25.17;;;9.30;99.90;;;;;;4856864;29;21040;-78
2023/04/08 03:53:55;;;;;;;29.33;26.40;;;9.30;99.90;;;;;;4851588;29;20877;-78
2023/04/08 03:56:23;;;;;;;30.27;27.40;;;9.20;99.90;;;;;;4856323;29;20700;-78
2023/04/08 03:58:50;;;;;;;31.30;28.33;;;9.20;99.90;;;;;;4856263;29;20520;-77
2023/04/08 04:01:17;;;;;;;30.00;27.30;;;9.20;99.90;;;;;;4856523;29;20453;-79
2023/04/08 04:03:44;;;;;;;30.00;27.40;;;9.20;99.90;;;;;;4856505;29;20455;-77
2023/04/08 04:06:11;;;;;;;29.50;26.87;;;9.20;99.90;;;;;;4856367;29;20449;-78
2023/04/08 04:08:37;;;;;;;31.50;28.60;;;9.20;99.90;;;;;;4856702;29;20959;-78
2023/04/08 04:11:04;;;;;;;30.47;27.40;;;9.20;99.90;;;;;;4857226;29;20497;-79
2023/04/08 04:13:32;;;;;;;31.83;28.93;;;9.20;99.90;;;;;;4857683;29;20956;-78
2023/04/08 04:15:59;;;;;;;27.77;25.27;;;9.20;99.90;;;;;;4863576;29;20459;-80
2023/04/08 04:18:25;;;;;;;27.80;25.13;;;9.10;99.90;;;;;;4878414;29;20467;-81
2023/04/08 04:20:52;;;;;;;29.10;26.27;;;9.10;99.90;;;;;;4878606;29;20959;-81
2023/04/08 04:23:19;;;;;;;26.43;24.03;;;9.20;99.90;;;;;;4878240;29;20467;-80
2023/04/08 04:25:45;;;;;;;27.60;25.10;;;9.20;99.90;;;;;;4878284;29;20955;-79
2023/04/08 04:28:12;;;;;;;28.10;25.63;;;9.20;99.90;;;;;;4878532;29;20884;-79
2023/04/08 04:30:40;;;;;;;30.47;27.70;;;9.20;99.90;;;;;;4878403;29;20466;-79
2023/04/08 04:33:07;;;;;;;30.50;27.50;;;9.20;99.90;;;;;;4878050;29;20503;-79
2023/04/08 04:35:34;;;;;;;29.77;26.90;;;9.20;99.90;;;;;;4878185;29;21042;-78
2023/04/08 04:38:01;;;;;;;29.83;27.10;;;9.20;99.90;;;;;;4878009;29;20467;-79
2023/04/08 04:40:28;;;;;;;30.23;27.47;;;9.20;99.90;;;;;;4878396;29;20463;-77
2023/04/08 04:42:55;;;;;;;28.90;26.03;;;9.10;99.90;;;;;;4878120;29;21062;-78
2023/04/08 04:45:21;;;;;;;29.93;27.47;;;9.10;99.90;;;;;;4877850;29;21102;-76
2023/04/08 04:47:49;;;;;;;29.87;27.07;;;8.90;99.90;;;;;;4877807;29;20471;-77
2023/04/08 04:50:16;;;;;;;30.77;27.93;;;9.00;99.90;;;;;;4878876;29;20849;-76
2023/04/08 04:52:43;;;;;;;31.73;28.73;;;8.90;99.90;;;;;;4876376;29;20970;-76
2023/04/08 04:55:10;;;;;;;31.03;28.10;;;8.80;99.90;;;;;;4877709;29;20468;-76
2023/04/08 04:57:37;;;;;;;29.20;26.67;;;8.70;99.90;;;;;;4876570;29;20452;-77
2023/04/08 05:00:04;;;;;;;33.40;29.80;;;8.70;99.90;;;;;;4877236;29;20976;-77
2023/04/08 05:02:31;;;;;;;31.93;28.43;;;8.70;99.90;;;;;;4877442;29;20457;-77
2023/04/08 05:04:59;;;;;;;31.53;28.50;;;8.60;99.90;;;;;;4877625;29;20460;-77
2023/04/08 05:07:26;;;;;;;30.83;27.80;;;8.70;99.90;;;;;;4877500;29;20452;-77
2023/04/08 05:09:53;;;;;;;32.00;28.67;;;8.70;99.90;;;;;;4877195;29;20501;-77
2023/04/08 05:12:20;;;;;;;31.67;28.57;;;8.70;99.90;;;;;;4877044;29;20738;-78
2023/04/08 05:14:47;;;;;;;32.77;29.70;;;8.70;99.90;;;;;;4877178;29;21035;-78
2023/04/08 05:17:14;;;;;;;31.90;29.20;;;8.80;99.90;;;;;;4877514;29;20575;-77
2023/04/08 05:19:41;;;;;;;31.07;28.17;;;8.90;99.90;;;;;;4877433;29;20824;-77
2023/04/08 05:22:09;;;;;;;29.77;26.80;;;9.00;99.90;;;;;;4876983;29;20479;-78
2023/04/08 05:24:36;;;;;;;29.73;27.23;;;9.00;99.90;;;;;;4876816;29;20460;-77
2023/04/08 05:27:03;;;;;;;30.40;27.73;;;8.90;99.90;;;;;;4877028;29;20488;-78
2023/04/08 05:29:29;;;;;;;32.10;29.30;;;9.00;99.90;;;;;;4877471;29;20456;-77
2023/04/08 05:31:56;;;;;;;30.60;27.73;;;9.00;99.90;;;;;;4876961;29;20504;-78
2023/04/08 05:34:23;;;;;;;29.93;27.07;;;9.10;99.90;;;;;;4876811;29;20518;-78
2023/04/08 05:36:51;;;;;;;30.40;27.53;;;9.20;99.90;;;;;;4876902;29;20491;-78
2023/04/08 05:39:19;;;;;;;32.37;29.23;;;9.30;99.90;;;;;;4876826;29;20983;-77
2023/04/08 05:41:46;;;;;;;31.30;28.40;;;9.20;99.90;;;;;;4876765;29;20887;-78
2023/04/08 05:44:13;;;;;;;29.90;27.10;;;9.40;99.90;;;;;;4877413;29;20460;-78
2023/04/08 05:46:40;;;;;;;30.37;27.77;;;9.50;99.90;;;;;;4872045;29;20467;-77
2023/04/08 05:49:07;;;;;;;32.77;29.87;;;9.60;99.90;;;;;;4876896;29;20460;-78
2023/04/08 05:51:33;;;;;;;29.90;27.50;;;9.50;99.90;;;;;;4876900;29;20499;-83
2023/04/08 05:54:00;;;;;;;29.60;26.90;;;9.70;99.90;;;;;;4877217;29;20475;-82
2023/04/08 05:56:28;;;;;;;30.53;27.57;;;9.60;99.90;;;;;;4877179;29;20946;-82
2023/04/08 05:58:55;;;;;;;30.83;27.83;;;9.70;99.90;;;;;;4876967;29;20471;-83
2023/04/08 06:01:21;;;;;;;29.20;26.40;;;9.70;99.90;;;;;;4876810;29;21033;-82
2023/04/08 06:03:48;;;;;;;30.70;27.70;;;9.70;99.90;;;;;;4876639;29;20470;-82
2023/04/08 06:06:15;;;;;;;28.33;25.73;;;9.60;99.90;;;;;;4876913;29;20474;-82
2023/04/08 06:08:42;;;;;;;31.83;28.70;;;9.50;99.90;;;;;;4876918;29;20471;-82
2023/04/08 06:11:08;;;;;;;29.73;27.00;;;9.50;99.90;;;;;;4876390;29;20468;-82
2023/04/08 06:13:37;;;;;;;29.03;26.30;;;9.60;99.90;;;;;;4876459;29;21046;-82
2023/04/08 06:16:10;;;;;;;30.30;27.40;;;9.60;99.90;;;;;;4876602;29;20500;-83
2023/04/08 06:18:37;;;;;;;29.87;27.07;;;9.70;99.90;;;;;;4876417;29;20490;-83
2023/04/08 06:21:04;;;;;;;30.43;27.60;;;9.70;99.90;;;;;;4876527;29;20463;-83
2023/04/08 06:23:31;;;;;;;31.70;28.77;;;9.60;99.90;;;;;;4876357;29;20456;-83
2023/04/08 06:25:58;;;;;;;31.63;28.87;;;9.70;99.90;;;;;;4876543;29;20456;-83
2023/04/08 06:28:25;;;;;;;31.23;27.97;;;9.70;99.90;;;;;;4876378;29;20456;-82
2023/04/08 06:30:53;;;;;;;30.60;27.50;;;9.60;99.90;;;;;;4876401;29;20562;-82
2023/04/08 06:33:19;;;;;;;30.07;27.17;;;9.70;99.90;;;;;;4876030;29;20499;-82
2023/04/08 06:35:46;;;;;;;29.27;26.20;;;9.80;99.90;;;;;;4875652;29;20575;-81
2023/04/08 06:38:13;;;;;;;30.60;27.90;;;9.90;99.90;;;;;;4876365;29;20503;-82
2023/04/08 06:40:40;;;;;;;30.50;27.70;;;10.00;99.90;;;;;;4876540;29;20942;-82
2023/04/08 06:43:07;;;;;;;31.53;28.47;;;10.10;99.90;;;;;;4876210;29;20499;-83
2023/04/08 06:45:33;;;;;;;29.30;26.67;;;10.30;99.90;;;;;;4876034;29;20472;-83
2023/04/08 06:48:01;;;;;;;29.20;26.50;;;10.40;99.90;;;;;;4876139;29;20925;-84
2023/04/08 06:50:28;;;;;;;29.87;27.07;;;10.40;99.90;;;;;;4876406;29;20464;-84
2023/04/08 06:52:55;;;;;;;27.57;24.97;;;10.60;99.90;;;;;;4879125;29;20998;-83
2023/04/08 06:55:21;;;;;;;28.63;26.23;;;10.70;99.90;;;;;;4876890;29;20464;-83
2023/04/08 06:57:48;;;;;;;26.90;24.60;;;10.70;99.90;;;;;;4875826;29;20968;-84
2023/04/08 07:00:15;;;;;;;28.53;25.83;;;10.50;99.90;;;;;;4873240;29;20934;-83
2023/04/08 07:02:42;;;;;;;27.40;24.90;;;10.50;99.90;;;;;;4875039;29;20460;-85
2023/04/08 07:05:10;;;;;;;27.00;24.40;;;10.20;99.90;;;;;;4876328;29;20456;-85
2023/04/08 07:07:37;;;;;;;29.10;26.47;;;10.30;99.90;;;;;;4876092;29;20455;-85
2023/04/08 07:10:04;;;;;;;25.77;23.57;;;10.30;99.90;;;;;;4876376;29;20464;-87
2023/04/08 07:12:30;;;;;;;26.77;24.37;;;10.30;99.90;;;;;;4876709;29;20503;-86
2023/04/08 07:14:57;;;;;;;26.97;24.80;;;10.20;99.90;;;;;;4876592;29;21000;-87
2023/04/08 07:17:24;;;;;;;26.90;24.40;;;10.30;99.90;;;;;;4876765;29;20452;-86
2023/04/08 07:19:51;;;;;;;27.67;25.33;;;10.60;99.90;;;;;;4876958;29;20735;-88
2023/04/08 07:22:19;;;;;;;26.03;23.93;;;10.70;99.90;;;;;;4877523;29;20459;-87
2023/04/08 07:24:48;;;;;;;24.73;22.20;;;10.70;99.90;;;;;;4877148;29;20471;-89
2023/04/08 07:27:15;;;;;;;27.67;25.57;;;10.70;99.90;;;;;;4880638;29;20460;-86
2023/04/08 07:29:42;;;;;;;22.73;20.83;;;10.70;99.90;;;;;;4883194;29;20456;-87
2023/04/08 07:32:08;;;;;;;24.73;22.53;;;10.70;99.90;;;;;;4881941;29;20495;-91
2023/04/08 07:34:35;;;;;;;22.40;20.60;;;10.70;99.90;;;;;;4890046;29;20429;-88
2023/04/08 07:42:20;;;;;;;22.37;20.60;;;12.00;99.90;;;;;;5672397;23;20494;-81
2023/04/08 07:44:47;;;;;;;22.50;20.80;;;12.10;99.90;;;;;;4927702;29;20497;-78
2023/04/08 07:47:14;;;;;;;21.50;19.80;;;12.60;99.90;;;;;;4914750;29;20458;-79
2023/04/08 07:49:40;;;;;;;22.20;20.50;;;13.10;99.90;;;;;;4913998;29;20451;-79
2023/04/08 07:52:07;;;;;;;22.60;20.77;;;13.20;99.90;;;;;;4916250;29;20501;-78
2023/04/08 07:54:34;;;;;;;23.10;21.30;;;13.00;99.90;;;;;;4916018;29;20495;-78
2023/04/08 07:57:01;;;;;;;20.80;19.20;;;13.00;99.90;;;;;;4916048;29;20494;-79
2023/04/08 07:59:29;;;;;;;21.60;19.93;;;13.00;99.90;;;;;;4916474;29;20518;-79
2023/04/08 08:01:56;;;;;;;18.67;17.10;;;13.20;99.90;;;;;;4916271;29;20503;-78
2023/04/08 08:04:24;;;;;;;21.10;19.40;;;13.30;99.90;;;;;;4916106;29;20976;-78
2023/04/08 08:06:51;;;;;;;21.40;19.63;;;13.40;99.90;;;;;;4915653;29;20582;-80
2023/04/08 08:09:17;;;;;;;22.10;20.43;;;13.30;99.90;;;;;;4915597;29;20454;-78
2023/04/08 08:11:44;;;;;;;22.93;21.13;;;13.00;99.90;;;;;;4916238;29;20465;-79
2023/04/08 08:14:12;;;;;;;22.67;20.93;;;12.70;99.90;;;;;;4916330;29;20489;-79
2023/04/08 08:16:41;;;;;;;20.20;18.80;;;13.00;99.90;;;;;;4915989;29;20477;-79
2023/04/08 08:19:08;;;;;;;20.07;18.47;;;13.30;99.90;;;;;;4915874;29;20462;-79
2023/04/08 08:21:36;;;;;;;19.27;17.67;;;13.50;99.90;;;;;;4915774;29;20718;-80
2023/04/08 08:24:03;;;;;;;20.53;19.00;;;13.70;99.90;;;;;;4915686;29;20450;-80
2023/04/08 08:26:30;;;;;;;21.63;20.13;;;13.60;99.90;;;;;;4916062;29;20841;-80
2023/04/08 08:28:56;;;;;;;21.67;19.97;;;13.30;99.90;;;;;;4916073;29;20450;-80
2023/04/08 08:31:23;;;;;;;19.03;17.53;;;13.10;99.90;;;;;;4915514;29;20465;-80
2023/04/08 08:33:51;;;;;;;22.20;20.40;;;13.20;99.90;;;;;;4915348;29;20659;-80
2023/04/08 08:36:18;;;;;;;20.27;18.77;;;12.90;99.90;;;;;;4905881;29;20807;-80
2023/04/08 08:38:45;;;;;;;23.20;21.20;;;12.80;99.90;;;;;;4897056;29;20463;-80
2023/04/08 08:41:11;;;;;;;19.40;17.97;;;13.20;99.90;;;;;;4896801;29;20458;-81
2023/04/08 08:43:38;;;;;;;22.30;20.60;;;13.30;99.90;;;;;;4896319;29;20479;-81
2023/04/08 08:46:07;;;;;;;20.10;18.60;;;13.60;99.90;;;;;;4896555;29;20458;-81
2023/04/08 08:48:37;;;;;;;21.07;19.47;;;14.40;99.90;;;;;;4896639;29;20870;-81
2023/04/08 08:51:08;;;;;;;19.87;18.53;;;15.30;99.90;;;;;;4896611;29;20483;-81
2023/04/08 08:53:35;;;;;;;20.00;18.70;;;15.90;99.90;;;;;;4896435;29;20523;-81
2023/04/08 08:56:01;;;;;;;20.07;18.37;;;15.80;99.80;;;;;;4896432;29;20519;-82
2023/04/08 08:58:28;;;;;;;21.07;19.57;;;15.90;99.70;;;;;;4896969;29;20462;-82
2023/04/08 09:00:55;;;;;;;19.30;17.80;;;15.90;99.10;;;;;;4896085;29;20459;-82
2023/04/08 09:03:23;;;;;;;18.60;17.40;;;16.00;98.90;;;;;;4896169;29;20818;-81
2023/04/08 09:05:52;;;;;;;19.03;17.73;;;16.10;97.70;;;;;;4896519;29;20466;-82
2023/04/08 09:08:28;;;;;;;20.20;18.60;;;16.10;97.60;;;;;;4896356;29;20463;-83
2023/04/08 09:10:55;;;;;;;20.57;18.97;;;16.20;98.10;;;;;;4896048;29;20451;-83
2023/04/08 09:13:23;;;;;;;20.77;19.47;;;16.40;97.00;;;;;;4896080;29;20518;-83
2023/04/08 09:16:04;;;;;;;20.47;18.97;;;16.30;97.30;;;;;;4895996;29;20808;-84
2023/04/08 09:18:31;;;;;;;20.27;18.77;;;16.20;97.80;;;;;;4896322;29;20490;-84
2023/04/08 09:21:00;;;;;;;20.60;19.00;;;16.10;97.00;;;;;;4897168;29;20542;-83
2023/04/08 09:23:40;;;;;;;18.50;17.10;;;15.80;95.40;;;;;;4896460;29;20542;-83
2023/04/08 09:26:11;;;;;;;20.03;18.63;;;16.10;96.70;;;;;;4896055;29;20522;-82
2023/04/08 09:28:38;;;;;;;20.23;18.83;;;16.50;96.10;;;;;;4895847;29;20459;-82
2023/04/08 09:31:22;;;;;;;19.20;17.80;;;17.30;94.10;;;;;;4895988;29;20881;-84
2023/04/08 09:33:50;;;;;;;21.40;20.00;;;17.50;92.30;;;;;;4896222;29;20878;-82
2023/04/08 09:36:17;;;;;;;21.77;19.77;;;17.20;91.20;;;;;;4895983;29;20483;-83
2023/04/08 09:38:45;;;;;;;20.80;19.40;;;17.00;90.40;;;;;;4896330;29;20459;-81
2023/04/08 09:41:15;;;;;;;20.60;19.13;;;17.30;90.10;;;;;;4907544;29;20455;-82
2023/04/08 09:43:47;;;;;;;22.13;20.33;;;17.30;88.80;;;;;;4911201;29;20524;-82
2023/04/08 09:46:15;;;;;;;20.73;19.27;;;17.80;86.80;;;;;;4895852;29;20562;-82
2023/04/08 09:48:49;;;;;;;22.67;21.00;;;17.80;87.80;;;;;;4896118;29;20459;-83
2023/04/08 09:51:18;;;;;;;19.93;18.73;;;17.30;89.70;;;;;;4895504;29;20471;-81
2023/04/08 09:53:49;;;;;;;21.90;20.33;;;18.10;88.60;;;;;;4895356;29;20490;-81
2023/04/08 09:56:19;;;;;;;20.03;18.63;;;18.50;88.50;;;;;;4895366;29;20494;-81
2023/04/08 09:58:52;;;;;;;19.40;18.10;;;19.20;87.40;;;;;;4895413;29;21054;-83
2023/04/08 10:01:26;;;;;;;19.53;18.23;;;19.90;85.10;;;;;;4895083;29;20499;-85
2023/04/08 10:03:55;;;;;;;22.17;20.77;;;20.20;81.60;;;;;;4895207;29;20870;-83
2023/04/08 10:06:26;;;;;;;22.70;21.20;;;19.60;79.30;;;;;;4895070;29;20946;-80
2023/04/08 10:08:55;;;;;;;21.60;19.90;;;19.00;78.60;;;;;;4894959;29;20969;-81
2023/04/08 10:11:22;;;;;;;22.27;20.80;;;18.70;77.20;;;;;;4894316;29;20455;-81
2023/04/08 10:13:49;;;;;;;21.50;20.10;;;18.70;76.60;;;;;;4894726;29;20503;-82
2023/04/08 10:16:21;;;;;;;20.80;19.40;;;18.20;71.30;;;;;;4894747;29;20798;-80
2023/04/08 10:18:51;;;;;;;20.07;18.63;;;17.70;71.30;;;;;;4894923;29;20471;-81
2023/04/08 10:21:38;;;;;;;19.90;18.50;;;16.60;73.30;;;;;;4896230;29;20463;-81
2023/04/08 10:24:10;;;;;;;20.00;18.50;;;16.00;76.30;;;;;;4895841;29;20455;-80
2023/04/08 10:26:39;;;;;;;20.07;18.67;;;15.30;77.10;;;;;;4916721;29;20435;-80
2023/04/08 10:29:30;;;;;;;19.33;17.73;;;15.10;77.70;;;;;;4916281;29;20492;-80
2023/04/08 10:31:57;;;;;;;21.00;19.50;;;14.90;79.70;;;;;;4917708;29;20439;-81
2023/04/08 10:34:25;;;;;;;21.67;20.07;;;14.90;80.90;;;;;;4916580;29;20497;-80
2023/04/08 10:36:54;;;;;;;20.77;19.37;;;14.80;82.10;;;;;;4912163;29;20542;-81
2023/04/08 10:39:22;;;;;;;19.67;18.27;;;14.40;84.20;;;;;;4898082;29;20495;-80
2023/04/08 10:41:50;;;;;;;19.43;17.83;;;14.50;85.10;;;;;;4896210;29;20459;-81
2023/04/08 10:44:16;;;;;;;21.43;19.83;;;14.50;85.90;;;;;;4894959;29;20458;-80
2023/04/08 10:46:43;;;;;;;20.43;19.03;;;14.10;85.60;;;;;;4894815;29;20980;-81
2023/04/08 10:49:10;;;;;;;19.97;18.50;;;13.90;86.70;;;;;;4894589;29;20470;-81
2023/04/08 10:51:36;;;;;;;19.97;18.57;;;14.00;87.70;;;;;;4894190;29;20455;-80
2023/04/08 10:54:07;;;;;;;19.40;18.03;;;14.20;87.60;;;;;;4894110;29;20490;-79
2023/04/08 10:56:36;;;;;;;20.37;18.87;;;14.10;87.60;;;;;;4894312;29;20459;-81
2023/04/08 10:59:02;;;;;;;19.93;18.60;;;14.00;88.30;;;;;;4894285;29;20451;-80
2023/04/08 11:01:39;;;;;;;21.60;20.00;;;13.90;87.70;;;;;;4894579;29;20459;-81
2023/04/08 11:04:12;;;;;;;20.63;19.03;;;14.00;87.60;;;;;;4894119;29;20459;-81
2023/04/08 11:06:38;;;;;;;22.07;20.40;;;14.20;87.20;;;;;;4894228;29;20462;-81
2023/04/08 11:09:05;;;;;;;21.43;19.93;;;14.30;87.10;;;;;;4894107;29;20452;-80
2023/04/08 11:11:32;;;;;;;20.17;18.60;;;14.70;85.70;;;;;;4894059;29;20459;-81
2023/04/08 11:14:00;;;;;;;20.90;19.20;;;14.80;83.30;;;;;;4894519;29;20490;-81
2023/04/08 11:16:28;;;;;;;20.67;18.97;;;14.90;81.90;;;;;;4894318;29;20917;-81
2023/04/08 11:18:55;;;;;;;19.30;17.90;;;15.00;81.30;;;;;;4893991;29;20491;-81
2023/04/08 11:21:27;;;;;;;18.37;16.87;;;14.70;78.30;;;;;;4894024;29;20463;-82
2023/04/08 11:23:55;;;;;;;19.10;17.70;;;14.50;80.80;;;;;;4897359;29;20459;-82
2023/04/08 11:26:23;;;;;;;19.73;18.27;;;14.50;80.50;;;;;;4897720;29;20566;-81
2023/04/08 11:28:51;;;;;;;18.27;16.93;;;14.60;79.60;;;;;;4897536;29;21019;-81
2023/04/08 11:31:20;;;;;;;17.90;16.70;;;14.80;79.30;;;;;;4897642;29;20499;-82
2023/04/08 11:33:48;;;;;;;18.37;17.17;;;14.50;79.90;;;;;;4897589;29;20491;-81
2023/04/08 11:36:17;;;;;;;18.90;17.60;;;14.70;81.20;;;;;;4897749;29;20874;-82
2023/04/08 11:38:46;;;;;;;21.43;20.03;;;14.90;80.00;;;;;;4898033;29;20942;-81
2023/04/08 11:41:13;;;;;;;18.90;17.60;;;14.70;80.40;;;;;;4897847;29;20458;-82
2023/04/08 11:43:50;;;;;;;17.90;16.73;;;14.30;80.00;;;;;;4897690;29;20475;-80
2023/04/08 11:46:19;;;;;;;20.00;18.70;;;14.20;82.40;;;;;;4898234;29;20855;-80
2023/04/08 11:49:02;;;;;;;19.97;18.47;;;14.30;84.70;;;;;;4897704;29;20451;-80
2023/04/08 11:51:29;;;;;;;20.40;19.10;;;14.30;86.80;;;;;;4897662;29;20502;-80
2023/04/08 11:53:56;;;;;;;19.00;17.67;;;14.10;88.80;;;;;;4897380;29;21021;-80
2023/04/08 11:56:25;;;;;;;20.00;18.63;;;14.10;88.00;;;;;;4897168;29;20463;-79
2023/04/08 11:58:52;;;;;;;20.47;18.97;;;13.80;89.10;;;;;;4897339;29;20574;-80
2023/04/08 12:01:19;;;;;;;17.90;16.60;;;13.80;87.20;;;;;;4897415;29;20486;-80
2023/04/08 12:04:01;;;;;;;18.80;17.50;;;13.80;86.60;;;;;;4897053;29;20558;-80
2023/04/08 12:06:30;;;;;;;18.23;17.03;;;13.70;86.90;;;;;;4897566;29;20459;-80
2023/04/08 12:08:57;;;;;;;20.20;18.67;;;13.70;87.50;;;;;;4897098;29;20518;-78
2023/04/08 12:11:24;;;;;;;20.30;18.87;;;13.90;86.90;;;;;;4897148;29;20462;-80
2023/04/08 12:13:51;;;;;;;19.70;18.30;;;13.90;87.00;;;;;;4895151;29;20518;-80
2023/04/08 12:16:19;;;;;;;19.00;17.70;;;13.90;87.20;;;;;;4897054;29;20563;-83
2023/04/08 12:18:46;;;;;;;20.27;18.77;;;14.00;88.00;;;;;;4895050;29;20946;-83
2023/04/08 12:21:14;;;;;;;19.50;18.00;;;13.90;87.40;;;;;;4897260;29;20540;-83
2023/04/08 12:23:41;;;;;;;19.50;17.93;;;14.00;88.20;;;;;;4897217;29;20448;-84
2023/04/08 12:26:08;;;;;;;20.43;19.10;;;13.90;87.40;;;;;;4897262;29;20463;-85
2023/04/08 12:28:35;;;;;;;18.83;17.53;;;14.10;87.30;;;;;;4897583;29;20849;-85
2023/04/08 12:31:02;;;;;;;17.80;16.57;;;14.40;86.20;;;;;;4897262;29;20513;-84
2023/04/08 12:33:28;;;;;;;21.90;20.30;;;14.30;85.50;;;;;;4897452;29;20466;-84
2023/04/08 12:35:56;;;;;;;20.83;19.33;;;14.10;86.10;;;;;;4896520;29;20483;-85
2023/04/08 12:38:25;;;;;;;19.20;17.90;;;13.90;85.70;;;;;;4896723;29;20463;-83
2023/04/08 12:40:52;;;;;;;20.67;19.10;;;14.00;86.30;;;;;;4896642;29;20490;-83